createdAt,value
2019-01-02T00:00:12.502Z,21.34
2019-01-02T00:01:12.453Z,21.35
2019-01-02T00:02:12.404Z,21.35
2019-01-02T00:03:12.357Z,21.40
2019-01-02T00:04:12.310Z,21.34
2019-01-02T00:05:12.265Z,21.29
2019-01-02T00:06:12.218Z,21.28
2019-01-02T00:07:12.171Z,21.32
2019-01-02T00:08:12.124Z,21.37
2019-01-02T00:09:12.077Z,21.31
2019-01-02T00:10:12.030Z,21.34
2019-01-02T00:11:11.983Z,21.28
2019-01-02T00:12:11.939Z,21.31
2019-01-02T00:13:11.894Z,21.38
2019-01-02T00:14:11.842Z,21.42
2019-01-02T00:15:11.795Z,21.31
2019-01-02T00:16:11.748Z,21.37
2019-01-02T00:17:11.702Z,21.37
2019-01-02T00:18:11.655Z,21.37
2019-01-02T00:19:11.653Z,21.27
2019-01-02T00:20:11.561Z,21.34
2019-01-02T00:21:11.514Z,21.32
2019-01-02T00:22:11.467Z,21.29
2019-01-02T00:23:11.419Z,21.29
2019-01-02T00:24:11.372Z,21.34
2019-01-02T00:25:11.327Z,21.34
2019-01-02T00:26:11.281Z,21.27
2019-01-02T00:27:11.233Z,21.28
2019-01-02T00:28:11.186Z,21.24
2019-01-02T00:29:11.140Z,21.25
2019-01-02T00:30:11.095Z,21.29
2019-01-02T00:31:11.045Z,21.32
2019-01-02T00:32:10.999Z,21.32
2019-01-02T00:33:10.955Z,21.34
2019-01-02T00:34:10.907Z,21.37
2019-01-02T00:35:10.858Z,21.27
2019-01-02T00:36:10.812Z,21.25
2019-01-02T00:37:10.765Z,21.31
2019-01-02T00:38:10.718Z,21.32
2019-01-02T00:39:10.671Z,21.31
2019-01-02T00:40:10.629Z,21.35
2019-01-02T00:41:10.578Z,21.31
2019-01-02T00:42:10.583Z,21.24
2019-01-02T00:43:10.484Z,21.28
2019-01-02T00:44:10.436Z,21.32
2019-01-02T00:45:10.389Z,21.31
2019-01-02T00:46:10.343Z,21.25
2019-01-02T00:47:10.294Z,21.32
2019-01-02T00:48:10.249Z,21.34
2019-01-02T00:49:10.203Z,21.31
2019-01-02T00:50:10.156Z,21.29
2019-01-02T00:51:10.107Z,21.28
2019-01-02T00:52:10.061Z,21.19
2019-01-02T00:53:10.014Z,21.24
2019-01-02T00:54:09.967Z,21.24
2019-01-02T00:55:09.919Z,21.21
2019-01-02T00:56:09.873Z,21.29
2019-01-02T00:57:09.826Z,21.19
2019-01-02T00:58:09.780Z,21.25
2019-01-02T00:59:09.732Z,21.22
2019-01-02T01:00:09.729Z,21.22
2019-01-02T01:01:09.639Z,21.28
2019-01-02T01:02:09.593Z,21.28
2019-01-02T01:03:09.646Z,21.29
2019-01-02T01:04:09.498Z,21.29
2019-01-02T01:05:09.451Z,21.28
2019-01-02T01:06:09.404Z,21.28
2019-01-02T01:07:09.357Z,21.24
2019-01-02T01:08:09.310Z,21.25
2019-01-02T01:09:09.263Z,21.21
2019-01-02T01:10:09.216Z,21.31
2019-01-02T01:11:09.168Z,21.32
2019-01-02T01:12:09.123Z,21.31
2019-01-02T01:13:09.079Z,21.28
2019-01-02T01:14:09.029Z,21.28
2019-01-02T01:15:08.985Z,21.25
2019-01-02T01:16:08.933Z,21.21
2019-01-02T01:17:08.887Z,21.29
2019-01-02T01:18:09.158Z,21.25
2019-01-02T01:19:08.793Z,21.32
2019-01-02T01:20:08.747Z,21.29
2019-01-02T01:21:08.701Z,21.31
2019-01-02T01:22:08.653Z,21.17
2019-01-02T01:23:08.606Z,21.31
2019-01-02T01:24:08.659Z,21.29
2019-01-02T01:25:08.512Z,21.29
2019-01-02T01:26:08.466Z,21.35
2019-01-02T01:27:08.418Z,21.28
2019-01-02T01:28:08.372Z,21.19
2019-01-02T01:29:08.325Z,21.25
2019-01-02T01:30:08.279Z,21.28
2019-01-02T01:31:08.232Z,21.27
2019-01-02T01:32:08.184Z,21.19
2019-01-02T01:33:08.139Z,21.25
2019-01-02T01:34:08.090Z,21.25
2019-01-02T01:35:08.043Z,21.28
2019-01-02T01:36:07.995Z,21.25
2019-01-02T01:37:07.948Z,21.29
2019-01-02T01:38:07.903Z,21.24
2019-01-02T01:39:07.857Z,21.28
2019-01-02T01:40:07.810Z,21.31
2019-01-02T01:41:07.762Z,21.19
2019-01-02T01:42:07.716Z,21.31
2019-01-02T01:43:07.668Z,21.28
2019-01-02T01:44:07.621Z,21.21
2019-01-02T01:45:07.578Z,21.31
2019-01-02T01:46:07.584Z,21.28
2019-01-02T01:47:07.480Z,21.25
2019-01-02T01:48:07.435Z,21.27
2019-01-02T01:49:07.387Z,21.27
2019-01-02T01:50:07.340Z,21.28
2019-01-02T01:51:07.293Z,21.22
2019-01-02T01:52:07.247Z,21.16
2019-01-02T01:53:07.199Z,21.22
2019-01-02T01:54:07.153Z,21.29
2019-01-02T01:55:07.106Z,21.27
2019-01-02T01:56:07.057Z,21.22
2019-01-02T01:57:07.011Z,21.21
2019-01-02T01:58:06.965Z,21.21
2019-01-02T01:59:06.917Z,21.21
2019-01-02T02:00:06.871Z,21.25
2019-01-02T02:01:06.825Z,21.22
2019-01-02T02:02:06.818Z,21.21
2019-01-02T02:03:06.730Z,21.27
2019-01-02T02:04:06.682Z,21.29
2019-01-02T02:05:06.637Z,21.27
2019-01-02T02:06:06.645Z,21.27
2019-01-02T02:07:06.546Z,21.19
2019-01-02T02:08:06.494Z,21.25
2019-01-02T02:09:06.449Z,21.25
2019-01-02T02:10:06.402Z,21.29
2019-01-02T02:11:06.355Z,21.21
2019-01-02T02:12:06.307Z,21.27
2019-01-02T02:13:06.261Z,21.21
2019-01-02T02:14:06.215Z,21.25
2019-01-02T02:15:06.171Z,21.25
2019-01-02T02:16:06.120Z,21.22
2019-01-02T02:17:06.074Z,21.25
2019-01-02T02:18:06.027Z,21.31
2019-01-02T02:19:05.979Z,21.19
2019-01-02T02:20:05.933Z,21.24
2019-01-02T02:21:05.894Z,21.28
2019-01-02T02:22:05.841Z,21.24
2019-01-02T02:23:05.794Z,21.25
2019-01-02T02:24:05.744Z,21.19
2019-01-02T02:25:05.699Z,21.24
2019-01-02T02:26:05.651Z,21.31
2019-01-02T02:27:05.604Z,21.24
2019-01-02T02:28:05.557Z,21.22
2019-01-02T02:29:05.509Z,21.25
2019-01-02T02:30:05.465Z,21.21
2019-01-02T02:32:05.687Z,21.17
2019-01-02T02:33:05.638Z,21.17
2019-01-02T02:34:05.275Z,21.27
2019-01-02T02:35:05.228Z,21.19
2019-01-02T02:36:05.181Z,21.22
2019-01-02T02:37:05.136Z,21.17
2019-01-02T02:38:05.090Z,21.17
2019-01-02T02:39:05.041Z,21.16
2019-01-02T02:40:04.994Z,21.25
2019-01-02T02:41:04.947Z,21.16
2019-01-02T02:42:04.900Z,21.16
2019-01-02T02:43:04.853Z,21.21
2019-01-02T02:44:04.806Z,21.27
2019-01-02T02:45:04.760Z,21.24
2019-01-02T02:46:04.713Z,21.19
2019-01-02T02:47:04.665Z,21.22
2019-01-02T02:48:04.619Z,21.24
2019-01-02T02:49:04.571Z,21.27
2019-01-02T02:50:04.525Z,21.17
2019-01-02T02:51:04.477Z,21.22
2019-01-02T02:52:04.431Z,21.17
2019-01-02T02:53:04.385Z,21.17
2019-01-02T02:54:04.337Z,21.17
2019-01-02T02:55:04.291Z,21.28
2019-01-02T02:56:04.243Z,21.14
2019-01-02T02:57:04.197Z,21.25
2019-01-02T02:58:04.149Z,21.17
2019-01-02T02:59:04.102Z,21.19
2019-01-02T03:00:04.055Z,21.24
2019-01-02T03:01:04.011Z,21.10
2019-01-02T03:02:03.961Z,21.27
2019-01-02T03:03:03.914Z,21.19
2019-01-02T03:04:03.868Z,21.25
2019-01-02T03:05:03.820Z,21.22
2019-01-02T03:06:03.775Z,21.28
2019-01-02T03:07:03.728Z,21.16
2019-01-02T03:08:03.680Z,21.21
2019-01-02T03:09:03.633Z,21.12
2019-01-02T03:10:03.587Z,21.24
2019-01-02T03:11:03.538Z,21.24
2019-01-02T03:12:03.493Z,21.27
2019-01-02T03:13:03.446Z,21.19
2019-01-02T03:14:03.401Z,21.21
2019-01-02T03:15:03.351Z,21.24
2019-01-02T03:16:03.304Z,21.27
2019-01-02T03:17:03.259Z,21.25
2019-01-02T03:18:03.211Z,21.07
2019-01-02T03:19:03.166Z,21.27
2019-01-02T03:20:03.117Z,21.24
2019-01-02T03:21:03.070Z,21.17
2019-01-02T03:22:03.026Z,21.27
2019-01-02T03:23:02.979Z,21.24
2019-01-02T03:24:02.931Z,21.13
2019-01-02T03:25:02.883Z,21.24
2019-01-02T03:26:02.835Z,21.24
2019-01-02T03:27:02.788Z,21.24
2019-01-02T03:28:02.742Z,21.21
2019-01-02T03:29:02.695Z,21.25
2019-01-02T03:30:02.649Z,21.21
2019-01-02T03:31:02.604Z,21.19
2019-01-02T03:32:02.605Z,21.09
2019-01-02T03:33:02.508Z,21.22
2019-01-02T03:34:02.460Z,21.24
2019-01-02T03:35:02.414Z,21.19
2019-01-02T03:36:02.410Z,21.16
2019-01-02T03:37:02.321Z,21.22
2019-01-02T03:38:02.274Z,21.22
2019-01-02T03:39:02.226Z,21.22
2019-01-02T03:40:02.185Z,21.17
2019-01-02T03:41:02.133Z,21.27
2019-01-02T03:42:02.088Z,21.13
2019-01-02T03:43:02.039Z,21.22
2019-01-02T03:44:01.992Z,21.27
2019-01-02T03:45:01.946Z,21.21
2019-01-02T03:46:01.901Z,21.16
2019-01-02T03:47:01.852Z,21.16
2019-01-02T03:48:01.806Z,21.19
2019-01-02T03:49:01.758Z,21.16
2019-01-02T03:50:01.712Z,21.21
2019-01-02T03:51:01.664Z,21.25
2019-01-02T03:52:01.618Z,21.25
2019-01-02T03:53:01.621Z,21.22
2019-01-02T03:54:01.574Z,21.10
2019-01-02T03:55:01.477Z,21.16
2019-01-02T03:56:01.432Z,21.19
2019-01-02T03:57:01.384Z,21.16
2019-01-02T03:58:01.337Z,21.21
2019-01-02T03:59:01.289Z,21.24
2019-01-02T04:00:01.242Z,21.25
2019-01-02T04:01:01.196Z,21.22
2019-01-02T04:02:01.149Z,21.06
2019-01-02T04:03:01.101Z,21.21
2019-01-02T04:04:01.055Z,21.24
2019-01-02T04:05:01.011Z,21.19
2019-01-02T04:06:00.962Z,21.22
2019-01-02T04:07:00.916Z,21.19
2019-01-02T04:08:00.867Z,21.21
2019-01-02T04:09:00.820Z,21.24
2019-01-02T04:10:00.776Z,21.19
2019-01-02T04:11:00.726Z,21.24
2019-01-02T04:12:00.680Z,21.22
2019-01-02T04:13:00.633Z,21.21
2019-01-02T04:14:00.588Z,21.24
2019-01-02T04:15:00.537Z,21.24
2019-01-02T04:16:00.498Z,21.24
2019-01-02T04:17:00.446Z,21.17
2019-01-02T04:18:00.397Z,21.21
2019-01-02T04:19:00.351Z,21.25
2019-01-02T04:20:00.303Z,21.21
2019-01-02T04:21:00.259Z,21.16
2019-01-02T04:22:00.210Z,21.21
2019-01-02T04:23:00.163Z,21.19
2019-01-02T04:24:00.117Z,21.22
2019-01-02T04:25:00.130Z,21.22
2019-01-02T04:26:00.023Z,21.21
2019-01-02T04:26:59.979Z,21.22
2019-01-02T04:27:59.932Z,21.24
2019-01-02T04:28:59.882Z,21.24
2019-01-02T04:29:59.836Z,21.25
2019-01-02T04:30:59.788Z,21.21
2019-01-02T04:31:59.740Z,21.25
2019-01-02T04:32:59.695Z,21.24
2019-01-02T04:33:59.648Z,21.21
2019-01-02T04:34:59.601Z,21.25
2019-01-02T04:35:59.604Z,21.25
2019-01-02T04:36:59.507Z,21.04
2019-01-02T04:37:59.460Z,21.22
2019-01-02T04:38:59.413Z,21.17
2019-01-02T04:39:59.367Z,21.19
2019-01-02T04:40:59.321Z,21.21
2019-01-02T04:41:59.274Z,21.25
2019-01-02T04:42:59.226Z,21.19
2019-01-02T04:43:59.179Z,21.21
2019-01-02T04:44:59.133Z,21.17
2019-01-02T04:45:59.086Z,21.22
2019-01-02T04:46:59.038Z,21.25
2019-01-02T04:47:58.991Z,21.17
2019-01-02T04:48:58.945Z,21.12
2019-01-02T04:49:58.898Z,21.21
2019-01-02T04:50:58.851Z,21.16
2019-01-02T04:51:58.804Z,21.27
2019-01-02T04:52:58.757Z,21.19
2019-01-02T04:53:58.712Z,21.19
2019-01-02T04:54:58.663Z,21.19
2019-01-02T04:55:58.617Z,21.17
2019-01-02T04:56:58.571Z,21.25
2019-01-02T04:57:58.625Z,21.21
2019-01-02T04:58:58.476Z,21.19
2019-01-02T04:59:58.429Z,21.25
2019-01-02T05:00:58.384Z,21.21
2019-01-02T05:01:58.336Z,21.21
2019-01-02T05:02:58.288Z,21.24
2019-01-02T05:03:58.242Z,21.25
2019-01-02T05:04:58.195Z,21.19
2019-01-02T05:05:58.151Z,21.19
2019-01-02T05:06:58.100Z,21.27
2019-01-02T05:07:58.054Z,21.19
2019-01-02T05:08:58.008Z,21.19
2019-01-02T05:09:57.961Z,21.25
2019-01-02T05:10:57.913Z,21.25
2019-01-02T05:11:57.866Z,21.22
2019-01-02T05:12:57.820Z,21.21
2019-01-02T05:13:57.773Z,21.21
2019-01-02T05:14:57.726Z,21.21
2019-01-02T05:15:57.681Z,21.19
2019-01-02T05:16:57.632Z,21.24
2019-01-02T05:17:57.586Z,21.25
2019-01-02T05:18:57.538Z,21.21
2019-01-02T05:19:57.491Z,21.24
2019-01-02T05:20:57.444Z,21.25
2019-01-02T05:21:57.458Z,21.21
2019-01-02T05:22:57.351Z,21.19
2019-01-02T05:23:57.305Z,21.19
2019-01-02T05:24:57.259Z,21.09
2019-01-02T05:25:57.211Z,21.21
2019-01-02T05:26:57.163Z,21.16
2019-01-02T05:27:57.130Z,21.22
2019-01-02T05:28:57.070Z,21.28
2019-01-02T05:29:57.023Z,21.17
2019-01-02T05:30:56.975Z,21.22
2019-01-02T05:31:56.929Z,21.25
2019-01-02T05:32:56.883Z,21.25
2019-01-02T05:33:56.838Z,21.17
2019-01-02T05:34:56.788Z,21.17
2019-01-02T05:35:56.741Z,21.24
2019-01-02T05:36:56.694Z,21.24
2019-01-02T05:37:56.648Z,21.31
2019-01-02T05:38:56.600Z,21.19
2019-01-02T05:39:56.552Z,21.22
2019-01-02T05:40:56.507Z,21.22
2019-01-02T05:41:56.461Z,21.16
2019-01-02T05:42:56.412Z,21.24
2019-01-02T05:43:56.366Z,21.22
2019-01-02T05:44:56.321Z,21.10
2019-01-02T05:45:56.277Z,21.25
2019-01-02T05:46:56.224Z,21.12
2019-01-02T05:47:56.179Z,21.21
2019-01-02T05:48:56.131Z,21.19
2019-01-02T05:49:56.085Z,21.17
2019-01-02T05:50:56.038Z,21.16
2019-01-02T05:51:55.991Z,21.19
2019-01-02T05:52:55.945Z,21.17
2019-01-02T05:53:55.898Z,21.25
2019-01-02T05:54:55.849Z,21.27
2019-01-02T05:55:55.804Z,21.16
2019-01-02T05:56:55.757Z,21.17
2019-01-02T05:57:55.710Z,21.16
2019-01-02T05:58:55.663Z,21.17
2019-01-02T05:59:55.619Z,21.25
2019-01-02T06:00:55.569Z,21.27
2019-01-02T06:01:55.574Z,21.22
2019-01-02T06:02:55.476Z,21.24
2019-01-02T06:03:55.429Z,21.22
2019-01-02T06:04:55.383Z,21.17
2019-01-02T06:05:55.336Z,21.24
2019-01-02T06:06:55.288Z,21.27
2019-01-02T06:07:55.241Z,21.06
2019-01-02T06:08:55.195Z,21.24
2019-01-02T06:09:55.149Z,21.22
2019-01-02T06:10:55.100Z,21.16
2019-01-02T06:11:55.054Z,21.16
2019-01-02T06:12:55.008Z,21.17
2019-01-02T06:13:54.961Z,21.22
2019-01-02T06:14:54.914Z,21.27
2019-01-02T06:15:54.868Z,21.17
2019-01-02T06:16:54.824Z,21.29
2019-01-02T06:17:54.775Z,21.19
2019-01-02T06:18:54.726Z,21.19
2019-01-02T06:19:54.681Z,21.19
2019-01-02T06:20:54.633Z,21.21
2019-01-02T06:21:54.586Z,21.16
2019-01-02T06:22:54.544Z,21.14
2019-01-02T06:23:54.492Z,21.22
2019-01-02T06:24:54.445Z,21.19
2019-01-02T06:25:54.400Z,21.25
2019-01-02T06:26:54.351Z,21.19
2019-01-02T06:27:54.305Z,21.07
2019-01-02T06:28:54.258Z,21.19
2019-01-02T06:29:54.212Z,21.25
2019-01-02T06:30:54.165Z,21.14
2019-01-02T06:31:54.118Z,21.24
2019-01-02T06:32:54.079Z,21.24
2019-01-02T06:33:54.023Z,21.22
2019-01-02T06:34:53.977Z,21.25
2019-01-02T06:35:53.931Z,21.19
2019-01-02T06:36:53.884Z,21.19
2019-01-02T06:37:53.837Z,21.21
2019-01-02T06:38:53.794Z,21.31
2019-01-02T06:39:53.743Z,21.24
2019-01-02T06:40:53.697Z,21.21
2019-01-02T06:41:53.649Z,21.21
2019-01-02T06:42:53.653Z,21.28
2019-01-02T06:43:53.606Z,21.25
2019-01-02T06:44:53.509Z,21.25
2019-01-02T06:45:53.463Z,21.27
2019-01-02T06:46:53.415Z,21.27
2019-01-02T06:47:53.369Z,21.24
2019-01-02T06:48:53.322Z,21.25
2019-01-02T06:49:53.275Z,21.31
2019-01-02T06:50:53.228Z,21.16
2019-01-02T06:51:53.181Z,21.24
2019-01-02T06:52:53.134Z,21.24
2019-01-02T06:53:53.090Z,21.27
2019-01-02T06:54:53.042Z,21.22
2019-01-02T06:55:52.994Z,21.22
2019-01-02T06:56:52.951Z,21.21
2019-01-02T06:57:52.901Z,21.27
2019-01-02T06:58:52.856Z,21.24
2019-01-02T06:59:52.807Z,21.28
2019-01-02T07:00:52.761Z,21.24
2019-01-02T07:01:53.030Z,21.28
2019-01-02T07:02:52.666Z,21.31
2019-01-02T07:03:52.620Z,21.31
2019-01-02T07:04:52.624Z,21.25
2019-01-02T07:05:52.526Z,21.31
2019-01-02T07:06:52.479Z,21.21
2019-01-02T07:07:52.435Z,21.25
2019-01-02T07:08:52.385Z,21.25
2019-01-02T07:09:52.339Z,21.21
2019-01-02T07:10:52.291Z,21.31
2019-01-02T07:11:52.245Z,21.25
2019-01-02T07:12:52.201Z,21.31
2019-01-02T07:13:52.151Z,21.28
2019-01-02T07:14:52.104Z,21.25
2019-01-02T07:15:52.057Z,21.25
2019-01-02T07:16:52.010Z,21.31
2019-01-02T07:17:51.963Z,21.21
2019-01-02T07:18:51.916Z,21.28
2019-01-02T07:19:51.870Z,21.25
2019-01-02T07:20:51.823Z,21.29
2019-01-02T07:21:51.776Z,21.28
2019-01-02T07:22:51.730Z,21.31
2019-01-02T07:23:51.682Z,21.22
2019-01-02T07:24:51.636Z,21.25
2019-01-02T07:25:51.639Z,21.31
2019-01-02T07:26:51.591Z,21.25
2019-01-02T07:27:51.495Z,21.28
2019-01-02T07:28:51.450Z,21.29
2019-01-02T07:29:51.402Z,21.22
2019-01-02T07:30:51.354Z,21.24
2019-01-02T07:31:51.310Z,21.27
2019-01-02T07:32:51.260Z,21.34
2019-01-02T07:33:51.238Z,21.29
2019-01-02T07:34:51.166Z,21.22
2019-01-02T07:35:51.121Z,21.28
2019-01-02T07:36:51.073Z,21.29
2019-01-02T07:37:51.027Z,21.25
2019-01-02T07:38:50.979Z,21.22
2019-01-02T07:39:50.933Z,21.31
2019-01-02T07:40:50.886Z,21.29
2019-01-02T07:41:50.839Z,21.27
2019-01-02T07:42:50.792Z,21.27
2019-01-02T07:43:50.745Z,21.24
2019-01-02T07:44:50.699Z,21.31
2019-01-02T07:45:50.652Z,21.22
2019-01-02T07:46:50.603Z,21.17
2019-01-02T07:47:50.559Z,21.24
2019-01-02T07:48:50.562Z,21.28
2019-01-02T07:49:50.466Z,21.28
2019-01-02T07:50:50.416Z,21.25
2019-01-02T07:51:50.370Z,21.25
2019-01-02T07:52:50.329Z,21.25
2019-01-02T07:53:50.277Z,21.25
2019-01-02T07:54:50.233Z,21.21
2019-01-02T07:55:50.183Z,21.17
2019-01-02T07:56:50.136Z,21.24
2019-01-02T07:57:50.090Z,21.37
2019-01-02T07:58:50.042Z,21.22
2019-01-02T07:59:49.996Z,21.22
2019-01-02T08:00:49.948Z,21.25
2019-01-02T08:01:49.902Z,21.21
2019-01-02T08:02:49.854Z,21.37
2019-01-02T08:03:49.808Z,21.32
2019-01-02T08:04:49.764Z,21.21
2019-01-02T08:05:49.714Z,21.25
2019-01-02T08:06:49.667Z,21.21
2019-01-02T08:07:49.621Z,21.29
2019-01-02T08:08:49.624Z,21.21
2019-01-02T08:09:49.528Z,21.17
2019-01-02T08:10:49.480Z,21.24
2019-01-02T08:11:49.435Z,21.25
2019-01-02T08:12:49.389Z,21.29
2019-01-02T08:13:49.340Z,21.32
2019-01-02T08:14:49.293Z,21.34
2019-01-02T08:15:49.246Z,21.24
2019-01-02T08:16:49.204Z,21.31
2019-01-02T08:17:49.152Z,21.29
2019-01-02T08:18:49.105Z,21.31
2019-01-02T08:19:49.059Z,21.34
2019-01-02T08:20:49.012Z,21.29
2019-01-02T08:21:48.965Z,21.34
2019-01-02T08:22:48.919Z,21.28
2019-01-02T08:23:48.871Z,21.31
2019-01-02T08:24:48.825Z,21.32
2019-01-02T08:25:48.778Z,21.31
2019-01-02T08:26:48.731Z,21.31
2019-01-02T08:27:48.683Z,21.29
2019-01-02T08:28:48.637Z,21.27
2019-01-02T08:29:48.593Z,21.32
2019-01-02T08:30:48.593Z,21.29
2019-01-02T08:31:48.497Z,21.31
2019-01-02T08:32:48.450Z,21.29
2019-01-02T08:33:48.404Z,21.34
2019-01-02T08:34:48.357Z,21.38
2019-01-02T08:35:48.310Z,21.32
2019-01-02T08:36:48.271Z,21.28
2019-01-02T08:37:48.215Z,21.27
2019-01-02T08:38:48.169Z,21.29
2019-01-02T08:39:48.124Z,21.35
2019-01-02T08:40:48.076Z,21.38
2019-01-02T08:41:48.029Z,21.31
2019-01-02T08:42:47.982Z,21.32
2019-01-02T08:43:47.936Z,21.37
2019-01-02T08:44:47.888Z,21.29
2019-01-02T08:45:47.841Z,21.32
2019-01-02T08:46:47.797Z,21.31
2019-01-02T08:47:47.748Z,21.40
2019-01-02T08:48:47.701Z,21.32
2019-01-02T08:49:47.653Z,21.31
2019-01-02T08:50:47.606Z,21.35
2019-01-02T08:51:47.559Z,21.37
2019-01-02T08:52:47.514Z,21.34
2019-01-02T08:53:47.474Z,21.35
2019-01-02T08:54:47.418Z,21.34
2019-01-02T08:55:47.378Z,21.32
2019-01-02T08:56:47.326Z,21.40
2019-01-02T08:57:47.278Z,21.34
2019-01-02T08:58:47.235Z,21.38
2019-01-02T08:59:47.187Z,21.34
2019-01-02T09:00:47.139Z,21.31
2019-01-02T09:01:47.093Z,21.28
2019-01-02T09:02:47.045Z,21.22
2019-01-02T09:03:46.999Z,21.25
2019-01-02T09:04:46.953Z,21.28
2019-01-02T09:05:46.905Z,21.24
2019-01-02T09:06:46.858Z,21.28
2019-01-02T09:07:46.812Z,21.25
2019-01-02T09:08:46.766Z,21.24
2019-01-02T09:09:46.723Z,21.24
2019-01-02T09:10:46.671Z,21.25
2019-01-02T09:11:46.626Z,21.24
2019-01-02T09:12:46.579Z,21.27
2019-01-02T09:13:46.531Z,21.29
2019-01-02T09:14:46.484Z,21.31
2019-01-02T09:15:46.437Z,21.27
2019-01-02T09:16:46.390Z,21.21
2019-01-02T09:17:46.344Z,21.25
2019-01-02T09:18:46.296Z,21.37
2019-01-02T09:19:46.252Z,21.21
2019-01-02T09:20:46.203Z,21.31
2019-01-02T09:21:46.157Z,21.35
2019-01-02T09:22:46.109Z,21.32
2019-01-02T09:23:46.063Z,21.31
2019-01-02T09:24:46.015Z,21.35
2019-01-02T09:25:45.969Z,21.29
2019-01-02T09:26:45.922Z,21.28
2019-01-02T09:27:45.874Z,21.35
2019-01-02T09:28:45.831Z,21.34
2019-01-02T09:29:45.782Z,21.31
2019-01-02T09:30:45.735Z,21.31
2019-01-02T09:31:45.687Z,21.31
2019-01-02T09:32:45.670Z,21.32
2019-01-02T09:33:52.028Z,21.32
2019-01-02T09:34:45.548Z,21.32
2019-01-02T09:35:45.516Z,21.37
2019-01-02T09:36:45.455Z,21.34
2019-01-02T09:37:45.407Z,21.35
2019-01-02T09:38:45.360Z,21.32
2019-01-02T09:39:45.314Z,21.32
2019-01-02T09:40:45.324Z,21.31
2019-01-02T09:41:45.221Z,21.40
2019-01-02T09:42:45.173Z,21.38
2019-01-02T09:43:45.125Z,21.37
2019-01-02T09:44:45.080Z,21.28
2019-01-02T09:45:45.034Z,21.37
2019-01-02T09:46:44.985Z,21.28
2019-01-02T09:47:44.940Z,21.32
2019-01-02T09:48:44.895Z,21.40
2019-01-02T09:49:44.847Z,21.37
2019-01-02T09:50:44.802Z,21.40
2019-01-02T09:51:44.755Z,21.44
2019-01-02T09:52:44.706Z,21.29
2019-01-02T09:53:44.661Z,21.50
2019-01-02T09:54:44.613Z,21.35
2019-01-02T09:55:44.615Z,21.29
2019-01-02T09:56:44.520Z,21.38
2019-01-02T09:57:44.473Z,21.29
2019-01-02T09:58:44.425Z,21.40
2019-01-02T09:59:44.379Z,21.35
2019-01-02T10:00:44.332Z,21.34
2019-01-02T10:01:44.286Z,21.37
2019-01-02T10:02:44.239Z,21.35
2019-01-02T10:03:44.192Z,21.42
2019-01-02T10:04:44.145Z,21.37
2019-01-02T10:05:44.099Z,21.47
2019-01-02T10:06:44.051Z,21.47
2019-01-02T10:07:44.005Z,21.37
2019-01-02T10:08:43.958Z,21.44
2019-01-02T10:09:43.911Z,21.38
2019-01-02T10:10:43.866Z,21.40
2019-01-02T10:11:43.819Z,21.42
2019-01-02T10:12:43.772Z,21.40
2019-01-02T10:13:43.725Z,21.40
2019-01-02T10:14:43.678Z,21.40
2019-01-02T10:15:43.630Z,21.44
2019-01-02T10:16:43.635Z,21.49
2019-01-02T10:17:43.589Z,21.47
2019-01-02T10:18:43.491Z,21.49
2019-01-02T10:19:43.445Z,21.54
2019-01-02T10:20:43.937Z,21.47
2019-01-02T10:21:43.352Z,21.52
2019-01-02T10:22:43.305Z,21.49
2019-01-02T10:23:43.258Z,21.53
2019-01-02T10:24:43.211Z,21.50
2019-01-02T10:25:44.352Z,21.50
2019-01-02T10:26:43.118Z,21.53
2019-01-02T10:27:43.072Z,21.49
2019-01-02T10:28:43.028Z,21.47
2019-01-02T10:29:42.979Z,21.54
2019-01-02T10:30:42.933Z,21.53
2019-01-02T10:31:42.889Z,21.47
2019-01-02T10:32:42.839Z,21.50
2019-01-02T10:33:42.792Z,21.50
2019-01-02T10:34:42.745Z,21.49
2019-01-02T10:35:42.698Z,21.56
2019-01-02T10:36:42.656Z,21.50
2019-01-02T10:37:42.605Z,21.47
2019-01-02T10:38:42.560Z,21.49
2019-01-02T10:39:42.512Z,21.56
2019-01-02T10:40:42.465Z,21.56
2019-01-02T10:41:42.419Z,21.46
2019-01-02T10:42:42.372Z,21.47
2019-01-02T10:43:42.324Z,21.54
2019-01-02T10:44:42.279Z,21.52
2019-01-02T10:45:42.231Z,21.46
2019-01-02T10:46:42.185Z,21.50
2019-01-02T10:47:42.138Z,21.56
2019-01-02T10:48:42.092Z,21.54
2019-01-02T10:49:42.046Z,21.59
2019-01-02T10:50:41.999Z,21.52
2019-01-02T10:51:41.952Z,21.50
2019-01-02T10:52:41.905Z,21.53
2019-01-02T10:53:41.859Z,21.47
2019-01-02T10:54:41.812Z,21.52
2019-01-02T10:55:41.765Z,21.52
2019-01-02T10:56:41.718Z,21.53
2019-01-02T10:57:41.682Z,21.53
2019-01-02T10:58:41.629Z,21.47
2019-01-02T10:59:41.578Z,21.44
2019-01-02T11:00:41.532Z,21.40
2019-01-02T11:01:41.486Z,21.50
2019-01-02T11:02:41.436Z,21.43
2019-01-02T11:03:41.392Z,21.52
2019-01-02T11:04:41.346Z,21.42
2019-01-02T11:05:41.299Z,21.35
2019-01-02T11:06:41.254Z,21.35
2019-01-02T11:07:41.205Z,21.37
2019-01-02T11:08:41.157Z,21.40
2019-01-02T11:09:41.112Z,21.37
2019-01-02T11:10:41.064Z,21.37
2019-01-02T11:11:41.017Z,21.38
2019-01-02T11:12:40.971Z,21.35
2019-01-02T11:13:40.925Z,21.37
2019-01-02T11:14:40.878Z,21.31
2019-01-02T11:15:40.831Z,21.31
2019-01-02T11:16:40.785Z,21.37
2019-01-02T11:17:40.738Z,21.37
2019-01-02T11:18:40.700Z,21.43
2019-01-02T11:19:40.644Z,21.42
2019-01-02T11:20:40.600Z,21.40
2019-01-02T11:21:40.601Z,21.37
2019-01-02T11:22:40.504Z,21.38
2019-01-02T11:23:40.458Z,21.37
2019-01-02T11:24:40.411Z,21.28
2019-01-02T11:25:40.365Z,21.35
2019-01-02T11:26:40.317Z,21.37
2019-01-02T11:27:40.271Z,21.35
2019-01-02T11:28:40.226Z,21.34
2019-01-02T11:29:40.179Z,21.35
2019-01-02T11:30:40.132Z,21.42
2019-01-02T11:31:40.084Z,21.38
2019-01-02T11:32:40.039Z,21.35
2019-01-02T11:33:39.994Z,21.50
2019-01-02T11:34:39.943Z,21.35
2019-01-02T11:35:39.897Z,21.38
2019-01-02T11:36:39.850Z,21.43
2019-01-02T11:37:39.808Z,21.42
2019-01-02T11:38:39.758Z,21.35
2019-01-02T11:39:39.711Z,21.38
2019-01-02T11:40:39.664Z,21.37
2019-01-02T11:41:39.617Z,21.42
2019-01-02T11:42:39.620Z,21.40
2019-01-02T11:43:39.522Z,21.31
2019-01-02T11:44:39.477Z,21.37
2019-01-02T11:45:39.430Z,21.38
2019-01-02T11:46:39.383Z,21.42
2019-01-02T11:47:39.344Z,21.40
2019-01-02T11:48:39.290Z,21.43
2019-01-02T11:49:39.246Z,21.42
2019-01-02T11:50:39.196Z,21.47
2019-01-02T11:51:39.150Z,21.37
2019-01-02T11:52:39.104Z,21.37
2019-01-02T11:53:39.057Z,21.40
2019-01-02T11:54:39.010Z,21.35
2019-01-02T11:55:38.962Z,21.40
2019-01-02T11:56:38.916Z,21.42
2019-01-02T11:57:38.871Z,21.35
2019-01-02T11:58:38.823Z,21.35
2019-01-02T11:59:38.776Z,21.34
2019-01-02T12:00:38.731Z,21.35
2019-01-02T12:01:38.683Z,21.37
2019-01-02T12:02:38.637Z,21.37
2019-01-02T12:03:38.591Z,21.32
2019-01-02T12:04:38.645Z,21.24
2019-01-02T12:05:38.497Z,21.34
2019-01-02T12:06:38.450Z,21.34
2019-01-02T12:07:38.403Z,21.28
2019-01-02T12:08:38.357Z,21.29
2019-01-02T12:09:38.310Z,21.24
2019-01-02T12:10:38.263Z,21.35
2019-01-02T12:11:38.216Z,21.29
2019-01-02T12:12:38.170Z,21.31
2019-01-02T12:13:38.123Z,21.37
2019-01-02T12:14:38.076Z,21.34
2019-01-02T12:15:38.029Z,21.32
2019-01-02T12:16:37.983Z,21.32
2019-01-02T12:17:37.939Z,21.29
2019-01-02T12:18:37.889Z,21.29
2019-01-02T12:19:37.842Z,21.29
2019-01-02T12:20:37.796Z,21.32
2019-01-02T12:21:37.749Z,21.37
2019-01-02T12:22:37.702Z,21.29
2019-01-02T12:23:37.707Z,21.29
2019-01-02T12:24:37.659Z,21.24
2019-01-02T12:25:37.561Z,21.17
2019-01-02T12:26:37.515Z,21.31
2019-01-02T12:27:37.468Z,21.29
2019-01-02T12:28:37.422Z,21.34
2019-01-02T12:29:37.376Z,21.31
2019-01-02T12:30:37.327Z,21.32
2019-01-02T12:31:37.281Z,21.37
2019-01-02T12:32:37.233Z,21.29
2019-01-02T12:33:37.189Z,21.29
2019-01-02T12:34:37.140Z,21.27
2019-01-02T12:35:37.095Z,21.32
2019-01-02T12:36:37.047Z,21.21
2019-01-02T12:37:37.001Z,21.29
2019-01-02T12:38:36.954Z,21.28
2019-01-02T12:39:36.907Z,21.22
2019-01-02T12:40:36.860Z,21.27
2019-01-02T12:41:36.814Z,21.28
2019-01-02T12:42:36.766Z,21.37
2019-01-02T12:43:36.720Z,21.29
2019-01-02T12:44:36.673Z,21.19
2019-01-02T12:45:36.626Z,21.27
2019-01-02T12:46:36.581Z,21.24
2019-01-02T12:47:36.533Z,21.27
2019-01-02T12:48:36.486Z,21.29
2019-01-02T12:49:36.439Z,21.38
2019-01-02T12:50:36.394Z,21.24
2019-01-02T12:51:36.345Z,21.28
2019-01-02T12:52:36.298Z,21.31